Terminal Aerodrome Forecast
Issued by NWS Jackson, MS

Home | Current Version | Previous Version | Text Only | Print | Product List | Glossary On
Versions: 1 2 3 4 5 6 7 8 9 10 11 12
000
FTUS44 KJAN 210552
TAFGWO
TAF
KGWO 210552Z 2106/2206 15009KT 5SM SHRA BKN050 OVC130
     FM211200 18006KT P6SM SHRA BKN015 OVC090
     FM211400 16004KT 5SM SHRA BR BKN025 OVC090
     FM211700 18004KT P6SM VCSH BKN025 OVC090
     FM211900 19004KT P6SM SHRA OVC050
     FM220000 00000KT P6SM VCSH BKN025 OVC050=

USA.gov is the U.S. government's official web portal to all federal, state and local government web resources and services.